To NAV CANADA Home Page Login to a new session Search on AWWS site Feedback and Comments Disclaimer Vers la page française équivalente Tips FAQ What's new on the site To the Forecasts and Observations / NOTAM section To "File a Flight Plan" website Publications and other links Update of the User's profile FIC Telephone Numbers My Weather Data Folder Route Weather Data Regional Weather Data Local Weather Data To the Forecasts and Observations / NOTAM section
Request Generated 05/31/2016 at 09:55:18 UTC . Weather information available at that time is displayed.

METAR/TAF

MEDICINE HAT/AB    (show WxCam)

METAR CYXH 310900Z AUTO 31013G18KT 9SM OVC010 09/08 A3013 RMK SLP219=
METAR CYXH 310800Z AUTO 31013G20KT 9SM OVC010 09/08 A3013 RMK SLP218=
METAR CYXH 310700Z AUTO 31011G18KT 9SM OVC014 09/08 A3013 RMK SLP218=

TAF CYXH 310539Z 3106/3118 33010G20KT 4SM -SHRA BR BKN010 OVC025
TEMPO 3106/3108 P6SM -RA SCT015 BKN040
FM310800 33010G20KT P6SM -RA BKN012 OVC025 TEMPO 3108/3117 3SM
-RA BR OVC006
FM311700 32010KT P6SM -RA OVC020 TEMPO 3117/3118 P6SM NSW BKN030
BKN060
RMK FCST BASED ON AUTO OBS. NXT FCST BY 311200Z=
Your time UTC time
Weather data provided by Environment Canada and NAV CANADA